Time;durP1;ratioP1;P1;durP2;ratioP2;P2;SDS_P1;SDS_P2;PMS_P1;PMS_P2;Temp;Humidity;BMP_temperature;BMP_pressure;BME280_temperature;BME280_humidity;BME280_pressure;Samples;Min_cycle;Max_cycle;Signal;HPM_P1;HPM_P2
2021/12/12 00:02:28;;;;;;;5.10;1.20;;;21.60;82.70;;;;;;5132169;27;20365;-84
2021/12/12 00:04:58;;;;;;;3.38;1.27;;;21.10;85.90;;;;;;5131583;27;20698;-85
2021/12/12 00:07:29;;;;;;;5.37;1.20;;;21.00;87.30;;;;;;5132611;27;20358;-84
2021/12/12 00:10:04;;;;;;;4.85;1.20;;;21.10;88.90;;;;;;5131195;27;20381;-85
2021/12/12 00:12:36;;;;;;;5.80;1.25;;;21.70;87.10;;;;;;5132488;27;20369;-86
2021/12/12 00:15:08;;;;;;;6.65;1.30;;;22.40;87.60;;;;;;5132405;27;20384;-87
2021/12/12 00:17:35;;;;;;;4.72;1.20;;;23.10;77.70;;;;;;5132443;27;20400;-87
2021/12/12 00:20:03;;;;;;;4.20;1.10;;;23.30;78.80;;;;;;5133008;27;20747;-87
2021/12/12 00:22:31;;;;;;;4.28;1.23;;;23.50;75.80;;;;;;5125990;27;20871;-86
2021/12/12 00:24:58;;;;;;;7.80;1.33;;;23.50;73.80;;;;;;5133061;27;20372;-87
2021/12/12 00:27:25;;;;;;;7.43;1.30;;;23.50;73.60;;;;;;5112342;28;20880;-85
2021/12/12 00:30:01;;;;;;;4.18;1.10;;;23.80;77.10;;;;;;5118143;27;20372;-91
2021/12/12 00:32:28;;;;;;;3.95;1.10;;;23.90;77.20;;;;;;5132262;27;20377;-86
2021/12/12 00:35:00;;;;;;;3.78;1.10;;;24.30;70.70;;;;;;5135105;27;20392;-85
2021/12/12 00:37:29;;;;;;;2.53;1.10;;;24.40;70.30;;;;;;5117141;27;20378;-88
2021/12/12 00:40:05;;;;;;;4.70;1.15;;;24.40;70.40;;;;;;5125203;27;20377;-86
2021/12/12 00:42:35;;;;;;;14.40;3.95;;;24.70;66.30;;;;;;5132535;27;20397;-86
2021/12/12 00:45:08;;;;;;;7.40;2.80;;;24.70;68.40;;;;;;5132256;27;20385;-86
2021/12/12 00:47:36;;;;;;;3.35;1.02;;;24.20;66.30;;;;;;5131753;27;20384;-87
2021/12/12 00:50:07;;;;;;;3.97;1.13;;;23.60;68.30;;;;;;5133640;27;20385;-86
2021/12/12 00:52:34;;;;;;;3.60;1.20;;;22.90;72.30;;;;;;5132547;27;20373;-87
2021/12/12 00:55:02;;;;;;;3.15;1.27;;;22.30;75.40;;;;;;5132041;27;20488;-84
2021/12/12 00:57:30;;;;;;;3.22;1.00;;;21.90;78.40;;;;;;5132296;27;20445;-86
2021/12/12 00:59:57;;;;;;;6.05;1.27;;;21.40;81.50;;;;;;5131956;27;20385;-87
2021/12/12 01:02:29;;;;;;;3.75;1.10;;;21.70;85.30;;;;;;5131040;27;20890;-89
2021/12/12 01:05:00;;;;;;;4.35;1.00;;;22.50;80.10;;;;;;5132384;27;20385;-89
2021/12/12 01:07:31;;;;;;;2.97;0.90;;;23.50;75.20;;;;;;5114002;27;20745;-90
2021/12/12 01:10:05;;;;;;;2.97;1.10;;;23.90;70.20;;;;;;5113515;27;20376;-90
2021/12/12 01:12:33;;;;;;;2.22;1.15;;;24.10;70.80;;;;;;5110953;27;20460;-85
2021/12/12 01:15:12;;;;;;;4.03;1.30;;;24.40;68.00;;;;;;5133504;27;20403;-88
2021/12/12 01:17:43;;;;;;;4.97;1.30;;;24.70;69.70;;;;;;5122651;27;20385;-88
2021/12/12 01:20:20;;;;;;;3.67;1.40;;;24.80;65.50;;;;;;5133283;27;20377;-88
2021/12/12 01:22:49;;;;;;;4.05;2.03;;;24.80;64.50;;;;;;5131630;27;20381;-89
2021/12/12 01:25:29;;;;;;;5.28;2.05;;;24.70;66.40;;;;;;5131729;27;20915;-90
2021/12/12 01:27:57;;;;;;;9.23;2.85;;;25.10;68.60;;;;;;5132100;27;20373;-89
2021/12/12 01:30:26;;;;;;;10.88;2.40;;;25.70;67.40;;;;;;5131641;27;20880;-89
2021/12/12 01:32:58;;;;;;;5.15;1.70;;;25.60;64.50;;;;;;5131604;27;20459;-88
2021/12/12 01:35:26;;;;;;;5.72;1.63;;;25.60;64.80;;;;;;5110308;28;20402;-88
2021/12/12 01:40:52;;;;;;;2.60;0.95;;;25.90;62.10;;;;;;5111317;28;20374;-87
2021/12/12 01:43:20;;;;;;;4.25;1.23;;;25.70;61.10;;;;;;5111382;28;20842;-93
2021/12/12 01:45:52;;;;;;;5.78;2.83;;;25.60;61.60;;;;;;5112557;28;20400;-93
2021/12/12 01:48:37;;;;;;;6.10;3.28;;;25.90;59.20;;;;;;5110755;28;20398;-88
2021/12/12 01:51:08;;;;;;;7.07;4.07;;;25.30;60.30;;;;;;5090420;28;20376;-89
2021/12/12 01:53:38;;;;;;;19.00;8.75;;;25.30;60.30;;;;;;5090737;28;20375;-87
2021/12/12 01:56:13;;;;;;;3.60;1.73;;;25.20;61.20;;;;;;5110772;28;20438;-88
2021/12/12 01:58:43;;;;;;;4.40;1.48;;;25.20;60.50;;;;;;5110074;28;20835;-87
2021/12/12 02:01:17;;;;;;;45.93;25.40;;;25.30;60.80;;;;;;5110810;28;20374;-87
2021/12/12 02:03:52;;;;;;;4.75;2.58;;;25.40;59.80;;;;;;5110859;28;20425;-89
2021/12/12 02:06:22;;;;;;;2.38;0.80;;;25.70;63.20;;;;;;5109790;28;20455;-88
2021/12/12 02:08:52;;;;;;;1.67;0.80;;;26.50;60.90;;;;;;5111239;28;20367;-88
2021/12/12 02:11:29;;;;;;;2.00;0.73;;;26.60;57.80;;;;;;5111506;28;21303;-92
2021/12/12 02:13:59;;;;;;;3.30;1.48;;;26.30;57.80;;;;;;5113846;28;20734;-90
2021/12/12 02:16:27;;;;;;;3.03;0.98;;;25.80;59.50;;;;;;5114230;28;20410;-89
2021/12/12 02:18:58;;;;;;;3.17;0.80;;;26.10;58.80;;;;;;5106445;28;20878;-88
2021/12/12 02:21:42;;;;;;;16.40;1.70;;;26.30;58.20;;;;;;5114682;28;20461;-88
2021/12/12 02:35:42;;;;;;;2.60;0.93;;;30.80;50.90;;;;;;5147890;27;20393;-88
2021/12/12 02:38:12;;;;;;;2.65;0.90;;;31.20;49.90;;;;;;5122003;27;20393;-89
2021/12/12 02:40:47;;;;;;;3.90;0.90;;;30.90;50.30;;;;;;5133718;27;20373;-90
2021/12/12 02:43:18;;;;;;;2.72;0.90;;;31.20;47.30;;;;;;5134464;27;20372;-89
2021/12/12 02:45:46;;;;;;;2.40;1.07;;;31.30;47.40;;;;;;5111164;28;20383;-89
2021/12/12 02:48:19;;;;;;;3.90;1.00;;;31.50;48.20;;;;;;5115160;27;20458;-89
2021/12/12 02:50:50;;;;;;;2.20;1.00;;;31.90;47.90;;;;;;5134143;27;20361;-88
2021/12/12 02:53:24;;;;;;;2.27;1.00;;;32.40;46.00;;;;;;5133810;27;20774;-89
2021/12/12 02:56:06;;;;;;;4.07;1.08;;;33.10;44.90;;;;;;5115556;27;20897;-89
2021/12/12 02:58:34;;;;;;;2.65;1.02;;;33.70;42.90;;;;;;5134683;27;20832;-90
2021/12/12 03:01:12;;;;;;;3.58;1.10;;;32.50;44.50;;;;;;5134859;27;20369;-91
2021/12/12 03:03:41;;;;;;;2.00;1.02;;;31.00;46.40;;;;;;5116358;27;20385;-90
2021/12/12 03:06:14;;;;;;;5.27;1.20;;;29.30;49.00;;;;;;5137155;27;20361;-89
2021/12/12 03:08:44;;;;;;;4.70;1.25;;;28.40;51.30;;;;;;5139246;27;20408;-89
2021/12/12 03:11:11;;;;;;;2.50;1.05;;;27.60;52.10;;;;;;5118123;27;20385;-89
2021/12/12 03:13:40;;;;;;;4.78;1.05;;;27.20;52.70;;;;;;5138022;27;20455;-89
2021/12/12 03:16:08;;;;;;;4.70;1.40;;;27.00;55.80;;;;;;5121535;27;20463;-91
2021/12/12 03:18:40;;;;;;;4.20;1.33;;;27.00;55.70;;;;;;5122309;27;20365;-90
2021/12/12 03:21:20;;;;;;;2.70;1.20;;;27.20;54.80;;;;;;5139764;27;20364;-91
2021/12/12 03:23:53;;;;;;;5.30;1.60;;;28.60;53.90;;;;;;5135438;27;20393;-88
2021/12/12 03:26:21;;;;;;;3.65;1.50;;;29.80;51.80;;;;;;5117730;27;20384;-86
2021/12/12 03:28:51;;;;;;;4.15;1.27;;;30.30;51.60;;;;;;5115609;27;20365;-85
2021/12/12 03:31:26;;;;;;;3.00;1.45;;;30.40;50.10;;;;;;5134574;27;20392;-91
2021/12/12 03:33:53;;;;;;;3.95;1.48;;;30.50;48.50;;;;;;5134377;27;20762;-86
2021/12/12 03:36:23;;;;;;;5.45;1.40;;;30.00;49.80;;;;;;5135478;27;20443;-93
2021/12/12 03:39:07;;;;;;;3.03;1.53;;;30.20;50.50;;;;;;5143167;27;20365;-93
2021/12/12 03:41:36;;;;;;;4.67;1.90;;;30.80;49.80;;;;;;5123375;27;20377;-90
2021/12/12 03:44:09;;;;;;;3.83;1.70;;;31.00;48.60;;;;;;5136245;27;20371;-82
2021/12/12 03:46:37;;;;;;;4.25;1.30;;;31.10;48.70;;;;;;5136568;27;20373;-85
2021/12/12 03:49:08;;;;;;;4.38;1.33;;;30.00;49.60;;;;;;5138103;27;20369;-82
2021/12/12 03:51:41;;;;;;;3.65;1.30;;;29.60;50.30;;;;;;5141636;27;20449;-90
2021/12/12 03:54:10;;;;;;;4.57;1.52;;;29.30;50.30;;;;;;5141327;27;20702;-81
2021/12/12 03:56:42;;;;;;;3.88;1.50;;;29.90;50.20;;;;;;5137900;27;20779;-81
2021/12/12 03:59:13;;;;;;;3.90;1.52;;;30.30;50.00;;;;;;5139567;27;20856;-82
2021/12/12 04:01:50;;;;;;;5.88;1.50;;;29.40;50.30;;;;;;5120979;27;20454;-81
2021/12/12 04:04:31;;;;;;;3.78;1.60;;;28.70;52.10;;;;;;5140057;27;20544;-81
2021/12/12 04:06:59;;;;;;;7.13;1.90;;;28.80;55.20;;;;;;5136585;27;20374;-80
2021/12/12 04:09:26;;;;;;;6.75;1.70;;;29.80;51.60;;;;;;5136530;27;21107;-86
2021/12/12 04:11:57;;;;;;;5.20;1.70;;;30.60;49.50;;;;;;5138668;27;20759;-82
2021/12/12 04:14:25;;;;;;;5.33;1.70;;;30.40;48.90;;;;;;5134425;27;20886;-79
2021/12/12 04:16:56;;;;;;;5.37;1.77;;;30.00;51.00;;;;;;5132041;27;20400;-84
2021/12/12 04:19:24;;;;;;;5.90;1.90;;;29.90;50.70;;;;;;5132651;27;20388;-86
2021/12/12 04:21:51;;;;;;;6.75;1.60;;;30.10;51.40;;;;;;5133036;27;20369;-88
2021/12/12 04:24:25;;;;;;;5.93;1.90;;;29.80;50.70;;;;;;5133003;27;20400;-87
2021/12/12 04:26:53;;;;;;;6.33;2.00;;;28.80;52.40;;;;;;5136651;27;20377;-90
2021/12/12 04:29:28;;;;;;;9.75;2.13;;;28.50;54.20;;;;;;5115731;27;20373;-92
2021/12/12 04:31:58;;;;;;;5.93;2.10;;;28.20;53.80;;;;;;5132743;27;20361;-87
2021/12/12 04:34:31;;;;;;;7.88;2.00;;;27.50;55.10;;;;;;5114064;27;20401;-87
2021/12/12 04:37:01;;;;;;;7.55;2.20;;;27.40;56.30;;;;;;5130989;27;20455;-88
2021/12/12 04:39:37;;;;;;;8.18;2.00;;;28.20;56.10;;;;;;5131971;27;20483;-86
2021/12/12 04:42:12;;;;;;;5.82;1.70;;;29.20;53.70;;;;;;5132658;27;20369;-87
2021/12/12 04:44:42;;;;;;;7.70;2.00;;;29.00;54.50;;;;;;5132365;27;20460;-87
2021/12/12 04:50:32;;;;;;;5.95;1.90;;;30.20;52.20;;;;;;5111644;28;20903;-88
2021/12/12 04:53:02;;;;;;;6.07;2.10;;;30.80;50.40;;;;;;5106465;27;20868;-89
2021/12/12 04:55:41;;;;;;;7.13;1.98;;;31.10;51.00;;;;;;5131938;27;20389;-86
2021/12/12 04:58:33;;;;;;;6.38;2.10;;;31.60;47.80;;;;;;5132048;27;20381;-88
2021/12/12 05:01:09;;;;;;;4.60;1.92;;;31.60;48.90;;;;;;5131972;27;20426;-90
2021/12/12 05:04:18;;;;;;;6.15;2.25;;;31.30;49.50;;;;;;5131901;27;20858;-86
2021/12/12 05:06:53;;;;;;;6.80;2.20;;;30.90;48.80;;;;;;5048578;28;20383;-86
2021/12/12 05:09:35;;;;;;;6.05;2.00;;;30.70;49.70;;;;;;5048966;28;20387;-87
2021/12/12 05:12:07;;;;;;;8.85;2.30;;;30.40;49.50;;;;;;5104989;27;20365;-87
2021/12/12 05:14:39;;;;;;;5.38;1.90;;;30.30;50.40;;;;;;5131897;27;20377;-87
2021/12/12 05:17:33;;;;;;;6.30;1.98;;;30.40;50.40;;;;;;5113462;27;20420;-87
2021/12/12 05:20:04;;;;;;;7.00;2.10;;;30.90;49.50;;;;;;5128682;27;20400;-85
2021/12/12 05:22:51;;;;;;;5.45;1.90;;;31.00;48.80;;;;;;5131599;27;20586;-87
2021/12/12 05:25:26;;;;;;;8.27;2.10;;;31.40;47.70;;;;;;5132882;27;20353;-87
2021/12/12 05:27:56;;;;;;;7.75;2.10;;;31.80;47.10;;;;;;5131739;27;20419;-87
2021/12/12 05:30:31;;;;;;;5.22;2.05;;;31.80;46.60;;;;;;5131467;27;20369;-88
2021/12/12 05:33:00;;;;;;;6.82;2.33;;;31.00;47.50;;;;;;5113196;28;20917;-88
2021/12/12 05:35:32;;;;;;;6.55;2.28;;;30.70;48.30;;;;;;5131598;27;20476;-86
2021/12/12 05:38:00;;;;;;;6.68;2.00;;;30.60;48.70;;;;;;5131397;27;20385;-85
2021/12/12 05:40:31;;;;;;;7.82;1.90;;;30.50;48.30;;;;;;5131806;27;20372;-86
2021/12/12 05:43:00;;;;;;;7.90;2.20;;;30.40;48.50;;;;;;5113403;28;20437;-87
2021/12/12 05:45:30;;;;;;;6.10;2.17;;;29.60;49.40;;;;;;5131553;27;20453;-87
2021/12/12 05:47:58;;;;;;;6.25;2.10;;;28.80;51.10;;;;;;5131111;27;20872;-85
2021/12/12 05:50:26;;;;;;;7.10;2.10;;;28.30;53.30;;;;;;5131399;27;20369;-87
2021/12/12 05:52:54;;;;;;;7.07;2.20;;;28.80;52.30;;;;;;5131669;27;20369;-90
2021/12/12 05:55:25;;;;;;;6.38;1.90;;;29.20;51.80;;;;;;5131009;28;20616;-86
2021/12/12 05:57:56;;;;;;;6.70;2.28;;;29.70;49.90;;;;;;5131382;27;20377;-88
2021/12/12 06:00:28;;;;;;;7.20;2.13;;;29.40;50.40;;;;;;5131035;27;20724;-87
2021/12/12 06:02:56;;;;;;;9.93;2.63;;;28.60;51.50;;;;;;5131293;27;20380;-87
2021/12/12 06:05:24;;;;;;;8.32;2.58;;;27.20;53.70;;;;;;5131413;27;20402;-88
2021/12/12 06:07:55;;;;;;;6.97;2.20;;;26.20;56.40;;;;;;5131274;28;20418;-86
2021/12/12 06:10:23;;;;;;;8.70;2.38;;;26.60;57.10;;;;;;5130947;27;20379;-88
2021/12/12 06:12:51;;;;;;;8.07;2.40;;;27.30;55.40;;;;;;5130285;27;20488;-87
2021/12/12 06:15:20;;;;;;;7.35;2.30;;;27.80;54.10;;;;;;5133026;27;20416;-86
2021/12/12 06:17:49;;;;;;;6.97;2.13;;;28.40;52.10;;;;;;5131494;27;20377;-87
2021/12/12 06:20:17;;;;;;;4.63;1.90;;;28.60;52.40;;;;;;5132070;27;20447;-86
2021/12/12 06:22:45;;;;;;;7.28;1.98;;;29.00;50.70;;;;;;5131040;27;20385;-86
2021/12/12 06:25:12;;;;;;;7.20;2.00;;;29.10;50.20;;;;;;5131792;27;20376;-90
2021/12/12 06:27:40;;;;;;;7.83;2.10;;;29.00;50.50;;;;;;5113501;28;20706;-86
2021/12/12 06:30:14;;;;;;;4.65;1.90;;;29.40;49.60;;;;;;5131448;27;20381;-90
2021/12/12 06:32:44;;;;;;;6.30;2.05;;;29.30;50.40;;;;;;5136538;27;20442;-88
2021/12/12 06:35:11;;;;;;;5.23;1.87;;;29.30;50.20;;;;;;5113596;28;20843;-86
2021/12/12 06:37:40;;;;;;;6.22;2.10;;;29.40;50.00;;;;;;5131140;27;20471;-88
2021/12/12 06:40:10;;;;;;;6.17;1.90;;;29.40;51.30;;;;;;5112225;28;20885;-87
2021/12/12 06:42:37;;;;;;;6.45;2.30;;;29.00;49.80;;;;;;5131268;27;20743;-85
2021/12/12 06:45:08;;;;;;;8.05;2.35;;;27.80;51.10;;;;;;5112749;28;20402;-87
2021/12/12 06:47:36;;;;;;;5.25;2.08;;;27.30;53.80;;;;;;5136250;28;20366;-84
2021/12/12 06:50:05;;;;;;;6.72;2.03;;;27.10;55.80;;;;;;5144307;27;20369;-86
2021/12/12 06:52:33;;;;;;;9.43;2.00;;;27.50;53.60;;;;;;5135180;28;20377;-87
2021/12/12 06:55:00;;;;;;;8.27;2.38;;;27.90;52.30;;;;;;5130348;27;20385;-88
2021/12/12 06:57:28;;;;;;;6.82;2.25;;;27.60;52.10;;;;;;5130726;27;20381;-86
2021/12/12 06:59:57;;;;;;;7.33;2.40;;;26.70;53.60;;;;;;5132874;27;20384;-91
2021/12/12 07:02:25;;;;;;;7.22;2.35;;;26.20;55.40;;;;;;5134558;27;21168;-90
2021/12/12 07:04:52;;;;;;;9.15;2.22;;;26.20;57.10;;;;;;5115835;27;20377;-85
2021/12/12 07:07:19;;;;;;;8.00;2.13;;;25.80;56.10;;;;;;5115428;27;20431;-87
2021/12/12 07:09:48;;;;;;;9.75;2.30;;;25.10;57.80;;;;;;5132599;27;20388;-86
2021/12/12 07:12:22;;;;;;;8.43;2.17;;;24.30;59.00;;;;;;5133804;27;20832;-85
2021/12/12 07:14:51;;;;;;;6.53;2.20;;;23.70;60.80;;;;;;5133873;27;20361;-85
2021/12/12 07:17:20;;;;;;;6.05;2.17;;;23.30;63.50;;;;;;5133068;27;20401;-84
2021/12/12 07:19:47;;;;;;;8.40;2.15;;;23.50;63.90;;;;;;5127759;27;20379;-91
2021/12/12 07:22:15;;;;;;;7.30;2.00;;;24.30;62.10;;;;;;5129106;27;20472;-86
2021/12/12 07:24:43;;;;;;;8.73;2.05;;;25.10;57.90;;;;;;5128005;27;20393;-87
2021/12/12 07:27:13;;;;;;;7.03;1.90;;;25.60;56.80;;;;;;5133533;27;20373;-84
2021/12/12 07:29:40;;;;;;;7.22;1.95;;;25.90;56.20;;;;;;5133002;27;20876;-86
2021/12/12 07:32:08;;;;;;;5.47;1.98;;;26.30;55.30;;;;;;5133468;27;20377;-87
2021/12/12 07:34:37;;;;;;;8.13;2.20;;;26.00;54.60;;;;;;5133658;27;20484;-86
2021/12/12 07:37:08;;;;;;;7.23;2.10;;;26.00;55.20;;;;;;5133460;27;20407;-86
2021/12/12 07:39:39;;;;;;;7.93;2.13;;;26.10;55.10;;;;;;5132762;27;20373;-85
2021/12/12 07:42:07;;;;;;;5.97;1.83;;;26.50;53.70;;;;;;5133698;27;20381;-84
2021/12/12 07:44:37;;;;;;;6.55;2.03;;;26.50;52.80;;;;;;5133349;27;20385;-84
2021/12/12 07:47:06;;;;;;;8.35;2.15;;;26.50;53.60;;;;;;5132708;27;20385;-84
2021/12/12 07:49:37;;;;;;;9.07;2.13;;;26.00;54.30;;;;;;5133241;27;20736;-85
2021/12/12 07:52:08;;;;;;;7.32;2.20;;;25.70;54.70;;;;;;5133027;27;20428;-86
2021/12/12 07:54:36;;;;;;;9.70;2.30;;;25.40;56.30;;;;;;5137489;27;20422;-85
2021/12/12 07:57:05;;;;;;;12.15;2.40;;;24.90;57.40;;;;;;5137736;27;20447;-85
2021/12/12 07:59:35;;;;;;;7.50;2.03;;;24.30;58.10;;;;;;5139199;27;20373;-86
2021/12/12 08:02:08;;;;;;;7.65;2.20;;;23.80;59.60;;;;;;5142243;27;20385;-86
2021/12/12 08:04:36;;;;;;;6.47;2.03;;;23.80;60.20;;;;;;5134195;27;20381;-85
2021/12/12 08:07:03;;;;;;;7.43;1.98;;;23.80;59.70;;;;;;5132375;27;20488;-85
2021/12/12 08:09:31;;;;;;;7.97;2.10;;;23.50;60.50;;;;;;5132572;27;20511;-84
2021/12/12 08:11:59;;;;;;;8.23;2.22;;;23.10;62.50;;;;;;5131914;27;20385;-85
2021/12/12 08:14:28;;;;;;;10.68;2.40;;;22.50;64.50;;;;;;5130633;27;20384;-85
2021/12/12 08:16:57;;;;;;;8.15;2.20;;;22.20;65.80;;;;;;5131890;27;20907;-85
2021/12/12 08:19:26;;;;;;;8.93;2.20;;;21.90;66.90;;;;;;5132126;27;20381;-86
2021/12/12 08:22:00;;;;;;;10.80;2.37;;;21.80;68.30;;;;;;5131647;27;20421;-85
2021/12/12 08:24:28;;;;;;;11.05;2.30;;;21.70;69.10;;;;;;5131335;27;20395;-86
2021/12/12 08:26:56;;;;;;;11.18;2.15;;;21.50;69.60;;;;;;5131913;27;20377;-85
2021/12/12 08:29:23;;;;;;;10.40;2.42;;;21.30;70.40;;;;;;5129009;27;20814;-84
2021/12/12 08:31:50;;;;;;;7.93;2.22;;;21.10;70.70;;;;;;5132196;27;20413;-86
2021/12/12 08:34:17;;;;;;;8.23;2.08;;;20.90;70.90;;;;;;5113178;27;20391;-86
2021/12/12 08:36:50;;;;;;;6.68;2.17;;;20.70;71.50;;;;;;5130864;27;20477;-85
2021/12/12 08:39:18;;;;;;;7.93;1.88;;;20.50;72.40;;;;;;5123969;27;20381;-85
2021/12/12 08:41:48;;;;;;;12.85;2.22;;;20.40;73.00;;;;;;5131837;27;20395;-88
2021/12/12 08:44:17;;;;;;;7.13;2.10;;;20.20;74.10;;;;;;5131580;27;20381;-85
2021/12/12 08:46:54;;;;;;;10.18;2.63;;;20.10;75.00;;;;;;5132161;27;20373;-88
2021/12/12 08:49:23;;;;;;;7.05;2.17;;;19.90;76.20;;;;;;5132511;27;20421;-88
2021/12/12 08:51:59;;;;;;;8.57;2.05;;;19.80;77.80;;;;;;5092679;28;20387;-88
2021/12/12 08:54:28;;;;;;;7.85;2.00;;;19.60;78.10;;;;;;5111795;28;20362;-88
2021/12/12 08:57:05;;;;;;;9.77;2.38;;;19.50;79.30;;;;;;5110407;28;20489;-88
2021/12/12 08:59:37;;;;;;;7.97;2.00;;;19.50;79.80;;;;;;5126242;27;20853;-87
2021/12/12 09:02:08;;;;;;;7.13;2.22;;;19.40;80.40;;;;;;5132308;27;20371;-85
2021/12/12 09:04:46;;;;;;;7.53;2.10;;;19.30;81.50;;;;;;5129605;27;20546;-91
2021/12/12 09:07:20;;;;;;;8.43;2.00;;;19.30;81.40;;;;;;5115549;27;20472;-89
2021/12/12 09:10:01;;;;;;;7.63;1.88;;;19.30;81.90;;;;;;5131488;27;20376;-87
2021/12/12 09:12:36;;;;;;;7.03;1.80;;;19.20;82.60;;;;;;5134252;27;20460;-86
2021/12/12 09:15:22;;;;;;;10.27;2.20;;;19.10;83.40;;;;;;5130622;27;20412;-86
2021/12/12 09:18:01;;;;;;;8.98;2.00;;;19.00;84.50;;;;;;5134532;27;20380;-94
2021/12/12 09:20:48;;;;;;;7.65;1.98;;;19.00;85.70;;;;;;5129630;27;20381;-92
2021/12/12 09:23:29;;;;;;;5.95;1.90;;;18.90;85.90;;;;;;5134248;27;20379;-90
2021/12/12 09:26:01;;;;;;;9.77;1.95;;;18.90;86.00;;;;;;5131213;27;20571;-88
2021/12/12 09:28:41;;;;;;;7.65;1.75;;;18.90;87.00;;;;;;5131509;27;20385;-88
2021/12/12 09:31:18;;;;;;;8.88;1.83;;;19.00;87.00;;;;;;5127744;27;20399;-86
2021/12/12 09:33:55;;;;;;;7.32;1.80;;;18.90;86.60;;;;;;5131352;27;20377;-87
2021/12/12 09:36:35;;;;;;;7.83;2.00;;;19.00;87.10;;;;;;5133264;27;20485;-90
2021/12/12 09:39:13;;;;;;;8.50;2.03;;;19.00;87.20;;;;;;5131907;27;20385;-88
2021/12/12 09:42:16;;;;;;;10.63;2.08;;;19.00;88.20;;;;;;5114065;28;20793;-91
2021/12/12 09:44:55;;;;;;;7.70;1.73;;;19.00;88.40;;;;;;5132105;27;20388;-89
2021/12/12 09:48:14;;;;;;;7.73;1.80;;;19.00;87.30;;;;;;5134709;27;20388;-92
2021/12/12 09:54:04;;;;;;;11.03;1.80;;;18.90;87.30;;;;;;5132155;27;20741;-86
2021/12/12 09:56:50;;;;;;;9.13;1.88;;;18.90;87.50;;;;;;5138218;27;20756;-89
2021/12/12 09:59:54;;;;;;;8.80;2.00;;;18.80;88.20;;;;;;5135524;27;20405;-89
2021/12/12 10:02:46;;;;;;;9.65;1.90;;;18.80;89.20;;;;;;5132260;27;20389;-87
2021/12/12 10:05:50;;;;;;;7.70;1.90;;;18.70;90.10;;;;;;5131629;28;20381;-86
2021/12/12 10:08:43;;;;;;;9.52;2.13;;;18.60;90.30;;;;;;5132916;27;20373;-87
2021/12/12 10:11:35;;;;;;;7.85;2.00;;;18.60;90.70;;;;;;5130333;27;20415;-83
2021/12/12 10:14:08;;;;;;;9.43;1.90;;;18.50;90.60;;;;;;5130894;27;20431;-83
2021/12/12 10:17:02;;;;;;;9.80;2.03;;;18.40;91.30;;;;;;5131011;27;20503;-84
2021/12/12 10:19:48;;;;;;;10.02;1.90;;;18.40;91.60;;;;;;5130486;27;20388;-84
2021/12/12 10:22:36;;;;;;;7.07;1.83;;;18.30;91.90;;;;;;5131220;28;20357;-84
2021/12/12 10:25:21;;;;;;;9.23;2.30;;;18.30;91.70;;;;;;5130725;27;20373;-83
2021/12/12 10:27:54;;;;;;;8.18;1.95;;;18.30;91.60;;;;;;5130630;27;20668;-83
2021/12/12 10:30:43;;;;;;;8.35;1.85;;;18.30;91.80;;;;;;5130365;27;20434;-85
2021/12/12 10:33:21;;;;;;;8.30;1.88;;;18.30;91.70;;;;;;5131019;27;20357;-84
2021/12/12 10:35:52;;;;;;;10.55;2.00;;;18.30;91.80;;;;;;5115670;27;20442;-84
2021/12/12 10:38:44;;;;;;;8.50;1.80;;;18.30;91.80;;;;;;5134478;27;20400;-83
2021/12/12 10:41:22;;;;;;;8.07;1.92;;;18.30;92.10;;;;;;5134487;27;20422;-83
2021/12/12 10:44:13;;;;;;;9.73;2.70;;;18.20;92.70;;;;;;5134689;27;20380;-84
2021/12/12 10:46:50;;;;;;;8.93;2.03;;;18.10;93.70;;;;;;5134396;27;20376;-83
2021/12/12 10:49:40;;;;;;;9.13;2.10;;;18.10;94.20;;;;;;5134463;27;20420;-85
2021/12/12 10:52:07;;;;;;;10.13;1.98;;;18.00;94.40;;;;;;5081540;28;20813;-87
2021/12/12 10:54:50;;;;;;;7.90;1.80;;;18.00;94.70;;;;;;5113945;28;20366;-83
2021/12/12 10:57:25;;;;;;;7.50;1.92;;;18.10;94.30;;;;;;5134307;27;20488;-83
2021/12/12 11:00:22;;;;;;;10.67;2.03;;;18.10;93.70;;;;;;5155099;27;20427;-83
2021/12/12 11:03:10;;;;;;;10.13;2.00;;;18.10;93.80;;;;;;5140139;27;20421;-83
2021/12/12 11:05:45;;;;;;;10.03;1.90;;;18.00;93.60;;;;;;5133855;27;20365;-82
2021/12/12 11:08:31;;;;;;;9.07;2.03;;;18.10;93.70;;;;;;5134113;27;20385;-82
2021/12/12 11:11:00;;;;;;;8.32;1.98;;;18.10;93.50;;;;;;5133423;27;20416;-83
2021/12/12 11:13:34;;;;;;;10.27;1.80;;;18.00;93.70;;;;;;5133641;27;20740;-83
2021/12/12 11:16:29;;;;;;;8.60;2.03;;;18.00;93.90;;;;;;5133979;27;20423;-83
2021/12/12 11:19:16;;;;;;;10.55;2.10;;;18.00;94.20;;;;;;5131501;27;20393;-83
2021/12/12 11:21:57;;;;;;;8.95;2.10;;;17.90;94.30;;;;;;5134006;27;20365;-83
2021/12/12 11:24:31;;;;;;;7.93;1.92;;;17.90;95.00;;;;;;5133436;27;20893;-83
2021/12/12 11:27:06;;;;;;;12.13;2.40;;;18.00;95.20;;;;;;5133935;27;20476;-83
2021/12/12 11:29:54;;;;;;;9.50;2.10;;;18.00;94.80;;;;;;5133590;27;20375;-83
2021/12/12 11:32:28;;;;;;;9.95;2.30;;;18.00;95.00;;;;;;5129714;27;20384;-83
2021/12/12 11:34:58;;;;;;;9.65;2.30;;;17.90;95.70;;;;;;5113011;28;20971;-82
2021/12/12 11:37:49;;;;;;;11.35;2.30;;;17.80;96.20;;;;;;5127017;27;20404;-84
2021/12/12 11:40:37;;;;;;;11.90;2.50;;;17.70;96.70;;;;;;5132853;27;20449;-82
2021/12/12 11:43:43;;;;;;;10.60;2.33;;;17.70;97.30;;;;;;5132548;27;20884;-83
2021/12/12 11:46:29;;;;;;;12.00;2.85;;;17.60;97.70;;;;;;5131911;27;20413;-83
2021/12/12 11:49:06;;;;;;;14.70;2.60;;;17.60;98.30;;;;;;5113078;28;20394;-83
2021/12/12 11:51:49;;;;;;;13.05;2.97;;;17.60;98.60;;;;;;5126897;27;20464;-82
2021/12/12 11:54:37;;;;;;;14.73;3.78;;;17.50;98.90;;;;;;5132167;27;20369;-83
2021/12/12 11:57:23;;;;;;;15.80;3.78;;;17.50;99.60;;;;;;5132838;27;20418;-82
2021/12/12 12:00:05;;;;;;;13.45;3.03;;;17.40;99.90;;;;;;5132985;27;20377;-83
2021/12/12 12:03:00;;;;;;;14.25;3.35;;;17.30;99.90;;;;;;5117839;27;20389;-82
2021/12/12 12:06:03;;;;;;;14.98;3.13;;;17.30;99.90;;;;;;5132647;27;20445;-83
2021/12/12 12:08:48;;;;;;;19.48;4.75;;;17.30;99.90;;;;;;5132696;27;20414;-82
2021/12/12 12:11:54;;;;;;;16.75;3.90;;;17.30;99.90;;;;;;5126651;27;20372;-83
2021/12/12 12:14:35;;;;;;;15.57;3.30;;;17.20;99.90;;;;;;5082718;27;20381;-84
2021/12/12 12:17:34;;;;;;;14.05;3.88;;;17.10;99.90;;;;;;5132031;27;20813;-83
2021/12/12 12:20:01;;;;;;;16.42;3.90;;;17.10;99.90;;;;;;5118358;27;20409;-83
2021/12/12 12:22:47;;;;;;;17.25;3.88;;;17.00;99.90;;;;;;5132428;27;20373;-83
2021/12/12 12:25:25;;;;;;;14.43;3.63;;;17.10;99.90;;;;;;5132077;27;20385;-82
2021/12/12 12:27:59;;;;;;;15.73;3.20;;;17.10;99.90;;;;;;5132217;27;20424;-82
2021/12/12 12:30:32;;;;;;;15.40;3.60;;;17.10;99.90;;;;;;5117986;27;20381;-83
2021/12/12 12:33:28;;;;;;;12.27;3.10;;;17.10;99.90;;;;;;5132528;27;20376;-82
2021/12/12 12:36:13;;;;;;;16.08;3.63;;;17.20;99.90;;;;;;5115561;27;20465;-83
2021/12/12 12:39:01;;;;;;;14.45;3.00;;;17.20;99.90;;;;;;5132347;27;20387;-82
2021/12/12 12:41:52;;;;;;;12.95;2.92;;;17.10;99.90;;;;;;5132463;27;20385;-83
2021/12/12 12:44:56;;;;;;;11.95;2.97;;;17.10;99.90;;;;;;5133095;27;20417;-82
2021/12/12 12:47:41;;;;;;;9.52;2.55;;;17.00;99.90;;;;;;5132368;27;20526;-82
2021/12/12 12:50:43;;;;;;;14.82;2.83;;;17.00;99.90;;;;;;5112028;28;20381;-82
2021/12/12 12:53:46;;;;;;;13.98;3.03;;;16.90;99.90;;;;;;5099957;27;20377;-83
2021/12/12 12:56:36;;;;;;;13.95;2.85;;;16.90;99.90;;;;;;5130738;27;20906;-82
2021/12/12 12:59:19;;;;;;;12.30;2.60;;;16.90;99.90;;;;;;5131517;27;20429;-82
2021/12/12 13:02:04;;;;;;;10.87;2.73;;;16.80;99.90;;;;;;5131718;27;20767;-82
2021/12/12 13:04:59;;;;;;;13.25;2.90;;;16.80;99.90;;;;;;5109766;27;20868;-82
2021/12/12 13:07:48;;;;;;;11.60;2.77;;;16.80;99.90;;;;;;5131731;27;20380;-82
2021/12/12 13:10:22;;;;;;;14.48;3.35;;;16.70;99.90;;;;;;5080373;27;20389;-82
2021/12/12 13:13:18;;;;;;;18.42;4.15;;;16.80;99.90;;;;;;5131191;27;20796;-82
2021/12/12 13:15:59;;;;;;;13.93;3.70;;;16.80;99.90;;;;;;5131332;27;20407;-82
2021/12/12 13:18:32;;;;;;;14.55;3.67;;;16.80;99.90;;;;;;5131451;27;20729;-83
2021/12/12 13:21:12;;;;;;;16.55;3.83;;;16.80;99.90;;;;;;5111316;28;20397;-82
2021/12/12 13:23:57;;;;;;;18.63;4.25;;;16.80;99.90;;;;;;5130844;27;20376;-82
2021/12/12 13:26:31;;;;;;;16.03;3.93;;;16.70;99.90;;;;;;5131390;27;20419;-83
2021/12/12 13:29:14;;;;;;;14.82;3.55;;;16.70;99.90;;;;;;5121742;27;20735;-82
2021/12/12 13:31:51;;;;;;;15.10;3.50;;;16.80;99.90;;;;;;5131182;27;20400;-82
2021/12/12 13:34:50;;;;;;;17.25;3.40;;;16.80;99.90;;;;;;5130748;27;20389;-83
2021/12/12 13:37:41;;;;;;;16.40;2.85;;;16.80;99.90;;;;;;5130231;27;20404;-82
2021/12/12 13:40:24;;;;;;;15.07;2.72;;;16.80;99.90;;;;;;5130324;27;20393;-83
2021/12/12 13:43:00;;;;;;;14.00;2.83;;;16.70;99.90;;;;;;5130481;27;20380;-83
2021/12/12 13:45:49;;;;;;;16.80;3.72;;;16.70;99.90;;;;;;5131273;27;20391;-81
2021/12/12 13:48:25;;;;;;;14.73;3.33;;;16.60;99.90;;;;;;5130607;27;20452;-83
2021/12/12 13:51:13;;;;;;;14.43;3.13;;;16.60;99.90;;;;;;5130936;27;20399;-81